sensor_id;sensor_type;location;lat;lon;timestamp;P1;durP1;ratioP1;P2;durP2;ratioP2
21624;SDS011;10974;51.034;3.744;2023-03-30T04:23:18;4.40;;;1.80;;
21624;SDS011;10974;51.034;3.744;2023-03-30T04:25:46;5.17;;;2.10;;
21624;SDS011;10974;51.034;3.744;2023-03-30T04:28:12;5.90;;;2.07;;
21624;SDS011;10974;51.034;3.744;2023-03-30T04:30:38;7.87;;;2.23;;
21624;SDS011;10974;51.034;3.744;2023-03-30T04:33:04;3.50;;;2.10;;
21624;SDS011;10974;51.034;3.744;2023-03-30T04:35:33;4.50;;;2.20;;
21624;SDS011;10974;51.034;3.744;2023-03-30T04:37:59;5.97;;;2.13;;
21624;SDS011;10974;51.034;3.744;2023-03-30T04:40:26;2.83;;;1.73;;
21624;SDS011;10974;51.034;3.744;2023-03-30T04:42:52;3.63;;;1.83;;
21624;SDS011;10974;51.034;3.744;2023-03-30T04:45:18;6.53;;;1.77;;
21624;SDS011;10974;51.034;3.744;2023-03-30T04:47:45;6.50;;;2.57;;
21624;SDS011;10974;51.034;3.744;2023-03-30T04:50:11;3.30;;;1.77;;
21624;SDS011;10974;51.034;3.744;2023-03-30T04:52:37;7.33;;;1.93;;
21624;SDS011;10974;51.034;3.744;2023-03-30T04:55:04;3.53;;;1.77;;
21624;SDS011;10974;51.034;3.744;2023-03-30T04:57:30;3.43;;;1.73;;
21624;SDS011;10974;51.034;3.744;2023-03-30T04:59:56;5.07;;;2.00;;
21624;SDS011;10974;51.034;3.744;2023-03-30T05:02:22;6.23;;;2.00;;
21624;SDS011;10974;51.034;3.744;2023-03-30T05:04:48;5.50;;;2.23;;
21624;SDS011;10974;51.034;3.744;2023-03-30T05:07:14;12.10;;;3.17;;
21624;SDS011;10974;51.034;3.744;2023-03-30T05:09:40;8.67;;;2.20;;
21624;SDS011;10974;51.034;3.744;2023-03-30T05:12:06;6.63;;;2.10;;
21624;SDS011;10974;51.034;3.744;2023-03-30T05:14:32;4.23;;;2.00;;
21624;SDS011;10974;51.034;3.744;2023-03-30T05:16:58;5.70;;;2.00;;
21624;SDS011;10974;51.034;3.744;2023-03-30T05:19:25;8.43;;;2.53;;
21624;SDS011;10974;51.034;3.744;2023-03-30T05:21:51;8.90;;;2.07;;
21624;SDS011;10974;51.034;3.744;2023-03-30T05:24:17;5.70;;;2.10;;
21624;SDS011;10974;51.034;3.744;2023-03-30T05:26:43;6.50;;;2.30;;
21624;SDS011;10974;51.034;3.744;2023-03-30T05:29:09;8.93;;;2.63;;
21624;SDS011;10974;51.034;3.744;2023-03-30T05:31:35;8.43;;;2.87;;
21624;SDS011;10974;51.034;3.744;2023-03-30T05:34:02;9.87;;;3.33;;
21624;SDS011;10974;51.034;3.744;2023-03-30T05:36:28;11.40;;;3.00;;
21624;SDS011;10974;51.034;3.744;2023-03-30T05:38:54;9.87;;;2.90;;
21624;SDS011;10974;51.034;3.744;2023-03-30T05:41:20;9.73;;;2.53;;
21624;SDS011;10974;51.034;3.744;2023-03-30T05:43:46;15.60;;;3.40;;
21624;SDS011;10974;51.034;3.744;2023-03-30T05:46:13;11.53;;;3.03;;
21624;SDS011;10974;51.034;3.744;2023-03-30T05:48:39;10.77;;;2.90;;
21624;SDS011;10974;51.034;3.744;2023-03-30T05:51:05;7.90;;;2.67;;
21624;SDS011;10974;51.034;3.744;2023-03-30T05:53:31;11.17;;;2.93;;
21624;SDS011;10974;51.034;3.744;2023-03-30T05:55:57;14.03;;;3.50;;
21624;SDS011;10974;51.034;3.744;2023-03-30T05:58:24;14.63;;;3.63;;
21624;SDS011;10974;51.034;3.744;2023-03-30T06:00:50;14.87;;;3.00;;
21624;SDS011;10974;51.034;3.744;2023-03-30T06:03:16;14.00;;;3.73;;
21624;SDS011;10974;51.034;3.744;2023-03-30T06:05:42;16.60;;;3.43;;
21624;SDS011;10974;51.034;3.744;2023-03-30T06:08:09;11.00;;;2.93;;
21624;SDS011;10974;51.034;3.744;2023-03-30T06:10:36;14.23;;;3.30;;
21624;SDS011;10974;51.034;3.744;2023-03-30T06:13:02;14.73;;;3.50;;
21624;SDS011;10974;51.034;3.744;2023-03-30T06:15:28;11.20;;;3.53;;
21624;SDS011;10974;51.034;3.744;2023-03-30T06:17:54;18.70;;;4.30;;
21624;SDS011;10974;51.034;3.744;2023-03-30T06:20:23;13.63;;;3.70;;
21624;SDS011;10974;51.034;3.744;2023-03-30T06:22:50;15.50;;;3.90;;
21624;SDS011;10974;51.034;3.744;2023-03-30T06:25:16;12.70;;;3.23;;
21624;SDS011;10974;51.034;3.744;2023-03-30T06:27:44;12.17;;;3.10;;
21624;SDS011;10974;51.034;3.744;2023-03-30T06:30:11;16.90;;;3.53;;
21624;SDS011;10974;51.034;3.744;2023-03-30T06:32:38;19.23;;;3.47;;
21624;SDS011;10974;51.034;3.744;2023-03-30T06:35:04;16.43;;;3.60;;
21624;SDS011;10974;51.034;3.744;2023-03-30T06:37:31;17.80;;;4.43;;
21624;SDS011;10974;51.034;3.744;2023-03-30T06:39:57;16.73;;;4.30;;
21624;SDS011;10974;51.034;3.744;2023-03-30T06:42:25;13.07;;;3.30;;
21624;SDS011;10974;51.034;3.744;2023-03-30T06:44:51;13.17;;;3.27;;
21624;SDS011;10974;51.034;3.744;2023-03-30T06:47:17;10.50;;;3.03;;
21624;SDS011;10974;51.034;3.744;2023-03-30T06:49:44;17.83;;;3.80;;
21624;SDS011;10974;51.034;3.744;2023-03-30T06:52:10;12.73;;;3.30;;
21624;SDS011;10974;51.034;3.744;2023-03-30T06:54:37;16.80;;;3.37;;
21624;SDS011;10974;51.034;3.744;2023-03-30T06:57:03;20.30;;;3.67;;
21624;SDS011;10974;51.034;3.744;2023-03-30T06:59:29;22.77;;;4.63;;
21624;SDS011;10974;51.034;3.744;2023-03-30T07:01:57;16.50;;;4.23;;
21624;SDS011;10974;51.034;3.744;2023-03-30T07:04:23;17.40;;;5.07;;
21624;SDS011;10974;51.034;3.744;2023-03-30T07:06:49;17.00;;;3.63;;
21624;SDS011;10974;51.034;3.744;2023-03-30T07:09:16;18.20;;;3.80;;
21624;SDS011;10974;51.034;3.744;2023-03-30T07:11:42;18.30;;;4.10;;
21624;SDS011;10974;51.034;3.744;2023-03-30T07:14:08;14.87;;;4.17;;
21624;SDS011;10974;51.034;3.744;2023-03-30T07:16:36;20.13;;;4.10;;
21624;SDS011;10974;51.034;3.744;2023-03-30T07:19:03;17.43;;;4.33;;
21624;SDS011;10974;51.034;3.744;2023-03-30T07:21:30;17.87;;;4.63;;
21624;SDS011;10974;51.034;3.744;2023-03-30T07:23:56;18.47;;;4.00;;
21624;SDS011;10974;51.034;3.744;2023-03-30T07:26:26;18.43;;;4.60;;
21624;SDS011;10974;51.034;3.744;2023-03-30T07:28:52;23.53;;;4.40;;
21624;SDS011;10974;51.034;3.744;2023-03-30T07:31:20;15.70;;;3.70;;
21624;SDS011;10974;51.034;3.744;2023-03-30T07:33:47;14.03;;;3.50;;
21624;SDS011;10974;51.034;3.744;2023-03-30T07:36:13;17.60;;;4.00;;
21624;SDS011;10974;51.034;3.744;2023-03-30T07:38:40;18.97;;;3.90;;
21624;SDS011;10974;51.034;3.744;2023-03-30T07:41:10;20.13;;;4.30;;
21624;SDS011;10974;51.034;3.744;2023-03-30T07:43:37;23.30;;;4.17;;
21624;SDS011;10974;51.034;3.744;2023-03-30T07:46:06;13.03;;;3.90;;
21624;SDS011;10974;51.034;3.744;2023-03-30T07:48:33;17.10;;;4.37;;
21624;SDS011;10974;51.034;3.744;2023-03-30T07:51:00;19.30;;;4.00;;
21624;SDS011;10974;51.034;3.744;2023-03-30T07:53:27;16.43;;;3.87;;
21624;SDS011;10974;51.034;3.744;2023-03-30T07:55:53;21.23;;;3.93;;
21624;SDS011;10974;51.034;3.744;2023-03-30T07:58:19;22.27;;;4.97;;
21624;SDS011;10974;51.034;3.744;2023-03-30T08:00:45;20.50;;;5.03;;
21624;SDS011;10974;51.034;3.744;2023-03-30T08:03:12;22.70;;;4.17;;
21624;SDS011;10974;51.034;3.744;2023-03-30T08:05:39;25.60;;;5.27;;
21624;SDS011;10974;51.034;3.744;2023-03-30T08:08:05;15.43;;;4.00;;
21624;SDS011;10974;51.034;3.744;2023-03-30T08:10:32;20.40;;;4.60;;
21624;SDS011;10974;51.034;3.744;2023-03-30T08:12:58;21.03;;;4.47;;
21624;SDS011;10974;51.034;3.744;2023-03-30T08:15:25;22.73;;;4.90;;
21624;SDS011;10974;51.034;3.744;2023-03-30T08:17:52;20.63;;;5.00;;
21624;SDS011;10974;51.034;3.744;2023-03-30T08:20:18;19.57;;;4.50;;
21624;SDS011;10974;51.034;3.744;2023-03-30T08:22:44;15.97;;;4.13;;
21624;SDS011;10974;51.034;3.744;2023-03-30T08:25:10;21.10;;;4.20;;
21624;SDS011;10974;51.034;3.744;2023-03-30T08:27:36;25.50;;;4.37;;
21624;SDS011;10974;51.034;3.744;2023-03-30T08:30:03;19.97;;;3.37;;
21624;SDS011;10974;51.034;3.744;2023-03-30T08:32:29;18.53;;;4.03;;
21624;SDS011;10974;51.034;3.744;2023-03-30T08:34:55;20.83;;;4.50;;
21624;SDS011;10974;51.034;3.744;2023-03-30T08:37:21;15.17;;;3.03;;
21624;SDS011;10974;51.034;3.744;2023-03-30T08:39:47;33.03;;;6.23;;
21624;SDS011;10974;51.034;3.744;2023-03-30T08:42:24;14.80;;;4.13;;
21624;SDS011;10974;51.034;3.744;2023-03-30T08:44:54;18.50;;;4.20;;
21624;SDS011;10974;51.034;3.744;2023-03-30T08:47:55;18.00;;;3.43;;
21624;SDS011;10974;51.034;3.744;2023-03-30T08:50:20;20.57;;;4.50;;
21624;SDS011;10974;51.034;3.744;2023-03-30T08:52:50;23.60;;;4.87;;
21624;SDS011;10974;51.034;3.744;2023-03-30T09:02:59;21.03;;;3.80;;
21624;SDS011;10974;51.034;3.744;2023-03-30T09:05:29;17.10;;;4.03;;
21624;SDS011;10974;51.034;3.744;2023-03-30T09:08:01;18.97;;;4.23;;
21624;SDS011;10974;51.034;3.744;2023-03-30T09:10:29;21.00;;;4.97;;
21624;SDS011;10974;51.034;3.744;2023-03-30T09:12:58;15.70;;;3.80;;
21624;SDS011;10974;51.034;3.744;2023-03-30T09:15:29;17.40;;;4.50;;
21624;SDS011;10974;51.034;3.744;2023-03-30T09:18:56;15.03;;;4.03;;
21624;SDS011;10974;51.034;3.744;2023-03-30T09:20:53;16.27;;;3.97;;
21624;SDS011;10974;51.034;3.744;2023-03-30T09:23:19;16.80;;;5.33;;
21624;SDS011;10974;51.034;3.744;2023-03-30T09:25:54;15.60;;;3.90;;
21624;SDS011;10974;51.034;3.744;2023-03-30T09:30:51;6.90;;;2.83;;
21624;SDS011;10974;51.034;3.744;2023-03-30T09:36:09;13.37;;;3.57;;
21624;SDS011;10974;51.034;3.744;2023-03-30T09:38:39;7.37;;;2.40;;
21624;SDS011;10974;51.034;3.744;2023-03-30T09:43:51;13.03;;;3.30;;
21624;SDS011;10974;51.034;3.744;2023-03-30T09:46:18;11.37;;;2.57;;
21624;SDS011;10974;51.034;3.744;2023-03-30T09:48:45;12.07;;;3.00;;
21624;SDS011;10974;51.034;3.744;2023-03-30T09:53:41;9.07;;;2.70;;
21624;SDS011;10974;51.034;3.744;2023-03-30T09:56:09;10.10;;;2.47;;
21624;SDS011;10974;51.034;3.744;2023-03-30T09:58:41;10.63;;;3.73;;
21624;SDS011;10974;51.034;3.744;2023-03-30T10:03:36;11.13;;;3.30;;
21624;SDS011;10974;51.034;3.744;2023-03-30T10:06:09;15.20;;;3.33;;
21624;SDS011;10974;51.034;3.744;2023-03-30T10:11:19;13.53;;;2.83;;
21624;SDS011;10974;51.034;3.744;2023-03-30T10:13:46;12.20;;;3.40;;
21624;SDS011;10974;51.034;3.744;2023-03-30T10:16:20;9.73;;;3.17;;
21624;SDS011;10974;51.034;3.744;2023-03-30T10:18:47;15.37;;;3.57;;
21624;SDS011;10974;51.034;3.744;2023-03-30T10:21:18;19.13;;;3.53;;
21624;SDS011;10974;51.034;3.744;2023-03-30T10:23:57;15.53;;;3.63;;
21624;SDS011;10974;51.034;3.744;2023-03-30T10:26:25;13.60;;;3.33;;
21624;SDS011;10974;51.034;3.744;2023-03-30T10:28:56;15.53;;;3.60;;
21624;SDS011;10974;51.034;3.744;2023-03-30T10:31:25;20.93;;;4.33;;
21624;SDS011;10974;51.034;3.744;2023-03-30T10:33:54;14.80;;;4.13;;
21624;SDS011;10974;51.034;3.744;2023-03-30T10:36:21;18.77;;;4.20;;
21624;SDS011;10974;51.034;3.744;2023-03-30T10:38:49;15.30;;;3.90;;
21624;SDS011;10974;51.034;3.744;2023-03-30T10:41:18;12.67;;;3.50;;
21624;SDS011;10974;51.034;3.744;2023-03-30T10:43:45;13.20;;;3.30;;
21624;SDS011;10974;51.034;3.744;2023-03-30T10:46:14;14.50;;;3.57;;
21624;SDS011;10974;51.034;3.744;2023-03-30T10:48:52;16.60;;;4.60;;
21624;SDS011;10974;51.034;3.744;2023-03-30T10:57:08;13.73;;;4.23;;
21624;SDS011;10974;51.034;3.744;2023-03-30T11:09:52;14.60;;;3.33;;
21624;SDS011;10974;51.034;3.744;2023-03-30T11:12:18;16.33;;;4.57;;
21624;SDS011;10974;51.034;3.744;2023-03-30T11:17:18;20.63;;;3.60;;
21624;SDS011;10974;51.034;3.744;2023-03-30T11:19:46;28.47;;;4.27;;
21624;SDS011;10974;51.034;3.744;2023-03-30T11:22:18;20.73;;;4.30;;
21624;SDS011;10974;51.034;3.744;2023-03-30T11:24:49;32.60;;;4.77;;
21624;SDS011;10974;51.034;3.744;2023-03-30T11:27:17;15.97;;;4.50;;
21624;SDS011;10974;51.034;3.744;2023-03-30T11:29:53;20.53;;;3.87;;
21624;SDS011;10974;51.034;3.744;2023-03-30T11:42:47;14.23;;;4.40;;
21624;SDS011;10974;51.034;3.744;2023-03-30T11:45:17;18.63;;;4.87;;
21624;SDS011;10974;51.034;3.744;2023-03-30T11:53:11;15.03;;;3.40;;
21624;SDS011;10974;51.034;3.744;2023-03-30T12:08:43;24.73;;;5.03;;
21624;SDS011;10974;51.034;3.744;2023-03-30T12:13:39;14.47;;;4.43;;
21624;SDS011;10974;51.034;3.744;2023-03-30T12:16:10;17.67;;;3.47;;
21624;SDS011;10974;51.034;3.744;2023-03-30T12:18:42;18.50;;;3.73;;
21624;SDS011;10974;51.034;3.744;2023-03-30T12:21:19;12.20;;;3.20;;
21624;SDS011;10974;51.034;3.744;2023-03-30T12:23:59;13.97;;;4.10;;
21624;SDS011;10974;51.034;3.744;2023-03-30T12:26:29;21.43;;;4.90;;
21624;SDS011;10974;51.034;3.744;2023-03-30T12:34:08;11.53;;;3.20;;
21624;SDS011;10974;51.034;3.744;2023-03-30T12:36:38;14.90;;;3.90;;
21624;SDS011;10974;51.034;3.744;2023-03-30T12:39:38;19.90;;;4.10;;
21624;SDS011;10974;51.034;3.744;2023-03-30T12:42:02;10.90;;;3.43;;
21624;SDS011;10974;51.034;3.744;2023-03-30T12:55:04;19.70;;;3.60;;
21624;SDS011;10974;51.034;3.744;2023-03-30T12:57:47;10.87;;;3.80;;
21624;SDS011;10974;51.034;3.744;2023-03-30T13:05:32;13.97;;;2.83;;
21624;SDS011;10974;51.034;3.744;2023-03-30T13:08:03;11.13;;;2.60;;
21624;SDS011;10974;51.034;3.744;2023-03-30T13:12:57;8.07;;;2.50;;
21624;SDS011;10974;51.034;3.744;2023-03-30T13:22:58;8.67;;;2.67;;
21624;SDS011;10974;51.034;3.744;2023-03-30T13:25:28;12.80;;;2.90;;
21624;SDS011;10974;51.034;3.744;2023-03-30T13:27:57;14.80;;;3.13;;
21624;SDS011;10974;51.034;3.744;2023-03-30T13:30:25;14.03;;;3.10;;
21624;SDS011;10974;51.034;3.744;2023-03-30T13:33:10;9.80;;;3.20;;
21624;SDS011;10974;51.034;3.744;2023-03-30T13:46:14;9.70;;;2.67;;
21624;SDS011;10974;51.034;3.744;2023-03-30T13:51:22;11.77;;;2.63;;
21624;SDS011;10974;51.034;3.744;2023-03-30T13:53:53;8.13;;;1.80;;
21624;SDS011;10974;51.034;3.744;2023-03-30T13:56:21;15.90;;;3.67;;
21624;SDS011;10974;51.034;3.744;2023-03-30T13:59:10;7.27;;;2.70;;
21624;SDS011;10974;51.034;3.744;2023-03-30T14:01:35;8.63;;;3.27;;
21624;SDS011;10974;51.034;3.744;2023-03-30T14:04:02;9.40;;;2.57;;
21624;SDS011;10974;51.034;3.744;2023-03-30T14:06:30;12.07;;;3.63;;
21624;SDS011;10974;51.034;3.744;2023-03-30T14:11:37;8.53;;;3.13;;
21624;SDS011;10974;51.034;3.744;2023-03-30T14:14:04;7.47;;;2.20;;
21624;SDS011;10974;51.034;3.744;2023-03-30T14:16:32;12.47;;;2.47;;
21624;SDS011;10974;51.034;3.744;2023-03-30T14:19:08;9.13;;;2.40;;
21624;SDS011;10974;51.034;3.744;2023-03-30T14:21:36;8.80;;;2.57;;
21624;SDS011;10974;51.034;3.744;2023-03-30T14:24:07;13.50;;;3.23;;
21624;SDS011;10974;51.034;3.744;2023-03-30T14:26:37;9.97;;;2.27;;
21624;SDS011;10974;51.034;3.744;2023-03-30T14:29:05;10.83;;;2.23;;
21624;SDS011;10974;51.034;3.744;2023-03-30T14:31:39;8.53;;;2.30;;
21624;SDS011;10974;51.034;3.744;2023-03-30T14:36:47;9.00;;;2.40;;
21624;SDS011;10974;51.034;3.744;2023-03-30T14:39:13;6.83;;;2.00;;
21624;SDS011;10974;51.034;3.744;2023-03-30T14:41:39;7.33;;;2.07;;
21624;SDS011;10974;51.034;3.744;2023-03-30T14:46:38;6.33;;;2.23;;
21624;SDS011;10974;51.034;3.744;2023-03-30T14:49:06;9.20;;;2.40;;
21624;SDS011;10974;51.034;3.744;2023-03-30T14:53:59;8.40;;;2.13;;
21624;SDS011;10974;51.034;3.744;2023-03-30T14:56:25;7.80;;;2.47;;
21624;SDS011;10974;51.034;3.744;2023-03-30T14:58:52;8.77;;;2.40;;
21624;SDS011;10974;51.034;3.744;2023-03-30T15:01:21;11.60;;;2.50;;
21624;SDS011;10974;51.034;3.744;2023-03-30T15:03:48;15.43;;;3.43;;
21624;SDS011;10974;51.034;3.744;2023-03-30T15:06:18;9.00;;;2.37;;
21624;SDS011;10974;51.034;3.744;2023-03-30T15:08:45;8.47;;;2.73;;
21624;SDS011;10974;51.034;3.744;2023-03-30T15:11:18;9.90;;;2.70;;
21624;SDS011;10974;51.034;3.744;2023-03-30T15:13:46;10.97;;;2.97;;
21624;SDS011;10974;51.034;3.744;2023-03-30T15:16:14;10.17;;;3.10;;
21624;SDS011;10974;51.034;3.744;2023-03-30T15:18:41;6.03;;;2.43;;
21624;SDS011;10974;51.034;3.744;2023-03-30T15:21:08;6.43;;;2.50;;
21624;SDS011;10974;51.034;3.744;2023-03-30T15:23:35;9.00;;;2.60;;
21624;SDS011;10974;51.034;3.744;2023-03-30T15:26:03;10.60;;;3.23;;
21624;SDS011;10974;51.034;3.744;2023-03-30T15:28:31;8.73;;;2.27;;
21624;SDS011;10974;51.034;3.744;2023-03-30T15:30:59;9.67;;;2.90;;
21624;SDS011;10974;51.034;3.744;2023-03-30T15:33:30;13.40;;;3.43;;
21624;SDS011;10974;51.034;3.744;2023-03-30T15:36:00;12.23;;;2.93;;
21624;SDS011;10974;51.034;3.744;2023-03-30T15:38:29;14.77;;;3.60;;
21624;SDS011;10974;51.034;3.744;2023-03-30T15:40:56;12.30;;;3.20;;
21624;SDS011;10974;51.034;3.744;2023-03-30T15:43:23;12.87;;;3.33;;
21624;SDS011;10974;51.034;3.744;2023-03-30T15:45:51;12.67;;;3.47;;
21624;SDS011;10974;51.034;3.744;2023-03-30T15:48:19;11.73;;;3.20;;
21624;SDS011;10974;51.034;3.744;2023-03-30T15:50:47;11.27;;;3.23;;
21624;SDS011;10974;51.034;3.744;2023-03-30T15:53:17;14.80;;;3.67;;
21624;SDS011;10974;51.034;3.744;2023-03-30T15:55:44;14.90;;;4.40;;
21624;SDS011;10974;51.034;3.744;2023-03-30T15:58:15;10.60;;;3.20;;
21624;SDS011;10974;51.034;3.744;2023-03-30T16:00:43;13.47;;;3.40;;
21624;SDS011;10974;51.034;3.744;2023-03-30T16:03:11;11.63;;;2.60;;
21624;SDS011;10974;51.034;3.744;2023-03-30T16:05:37;8.83;;;3.10;;
21624;SDS011;10974;51.034;3.744;2023-03-30T16:08:03;14.40;;;3.83;;
21624;SDS011;10974;51.034;3.744;2023-03-30T16:10:31;16.57;;;3.37;;
21624;SDS011;10974;51.034;3.744;2023-03-30T16:12:58;14.47;;;3.33;;
21624;SDS011;10974;51.034;3.744;2023-03-30T16:15:26;14.67;;;3.37;;
21624;SDS011;10974;51.034;3.744;2023-03-30T16:17:53;12.00;;;4.47;;
21624;SDS011;10974;51.034;3.744;2023-03-30T16:20:23;9.40;;;3.00;;
21624;SDS011;10974;51.034;3.744;2023-03-30T16:22:49;13.67;;;3.50;;
21624;SDS011;10974;51.034;3.744;2023-03-30T16:25:17;14.60;;;3.53;;
21624;SDS011;10974;51.034;3.744;2023-03-30T16:27:43;10.50;;;2.80;;
21624;SDS011;10974;51.034;3.744;2023-03-30T16:32:51;13.13;;;3.30;;
21624;SDS011;10974;51.034;3.744;2023-03-30T16:35:17;14.37;;;3.50;;
21624;SDS011;10974;51.034;3.744;2023-03-30T16:37:43;16.30;;;3.30;;
21624;SDS011;10974;51.034;3.744;2023-03-30T16:40:17;11.47;;;3.40;;
21624;SDS011;10974;51.034;3.744;2023-03-30T16:42:46;13.33;;;2.97;;
21624;SDS011;10974;51.034;3.744;2023-03-30T16:45:12;12.87;;;4.40;;
21624;SDS011;10974;51.034;3.744;2023-03-30T16:47:38;13.13;;;3.70;;
21624;SDS011;10974;51.034;3.744;2023-03-30T16:50:11;9.60;;;3.70;;
21624;SDS011;10974;51.034;3.744;2023-03-30T16:52:39;7.10;;;3.10;;
21624;SDS011;10974;51.034;3.744;2023-03-30T16:55:06;6.70;;;2.47;;
21624;SDS011;10974;51.034;3.744;2023-03-30T16:57:34;10.33;;;3.10;;
21624;SDS011;10974;51.034;3.744;2023-03-30T17:00:00;9.37;;;2.50;;
21624;SDS011;10974;51.034;3.744;2023-03-30T17:02:26;9.97;;;2.87;;
21624;SDS011;10974;51.034;3.744;2023-03-30T17:04:52;13.40;;;4.03;;
21624;SDS011;10974;51.034;3.744;2023-03-30T17:07:18;12.77;;;3.33;;
21624;SDS011;10974;51.034;3.744;2023-03-30T17:09:44;10.97;;;3.20;;
21624;SDS011;10974;51.034;3.744;2023-03-30T17:12:10;10.00;;;2.70;;
21624;SDS011;10974;51.034;3.744;2023-03-30T17:14:36;12.30;;;3.80;;
21624;SDS011;10974;51.034;3.744;2023-03-30T17:17:03;15.70;;;3.73;;
21624;SDS011;10974;51.034;3.744;2023-03-30T17:19:31;13.03;;;3.67;;
21624;SDS011;10974;51.034;3.744;2023-03-30T17:21:57;14.30;;;3.77;;
21624;SDS011;10974;51.034;3.744;2023-03-30T17:24:23;11.30;;;3.40;;
21624;SDS011;10974;51.034;3.744;2023-03-30T17:26:49;17.40;;;3.83;;
21624;SDS011;10974;51.034;3.744;2023-03-30T17:29:15;12.57;;;4.60;;
21624;SDS011;10974;51.034;3.744;2023-03-30T17:31:41;14.30;;;4.03;;
21624;SDS011;10974;51.034;3.744;2023-03-30T17:34:09;14.97;;;3.17;;
21624;SDS011;10974;51.034;3.744;2023-03-30T17:36:35;16.93;;;3.97;;
21624;SDS011;10974;51.034;3.744;2023-03-30T17:39:01;14.00;;;3.40;;
21624;SDS011;10974;51.034;3.744;2023-03-30T17:41:31;15.20;;;4.63;;
21624;SDS011;10974;51.034;3.744;2023-03-30T17:44:02;16.90;;;4.83;;
21624;SDS011;10974;51.034;3.744;2023-03-30T17:46:28;10.67;;;4.00;;
21624;SDS011;10974;51.034;3.744;2023-03-30T17:48:54;16.70;;;4.10;;
21624;SDS011;10974;51.034;3.744;2023-03-30T17:51:22;10.10;;;4.03;;
21624;SDS011;10974;51.034;3.744;2023-03-30T17:53:48;12.47;;;3.17;;
21624;SDS011;10974;51.034;3.744;2023-03-30T17:56:15;11.60;;;3.70;;
21624;SDS011;10974;51.034;3.744;2023-03-30T17:58:41;15.60;;;3.47;;
21624;SDS011;10974;51.034;3.744;2023-03-30T18:01:07;16.07;;;4.50;;
21624;SDS011;10974;51.034;3.744;2023-03-30T18:03:36;15.33;;;4.20;;
21624;SDS011;10974;51.034;3.744;2023-03-30T18:06:06;15.87;;;4.87;;
21624;SDS011;10974;51.034;3.744;2023-03-30T18:08:32;18.23;;;4.10;;
21624;SDS011;10974;51.034;3.744;2023-03-30T18:10:59;16.00;;;3.70;;
21624;SDS011;10974;51.034;3.744;2023-03-30T18:13:26;17.57;;;4.60;;
21624;SDS011;10974;51.034;3.744;2023-03-30T18:15:54;13.53;;;3.90;;
21624;SDS011;10974;51.034;3.744;2023-03-30T18:18:21;14.53;;;4.23;;
21624;SDS011;10974;51.034;3.744;2023-03-30T18:20:49;19.47;;;3.87;;
21624;SDS011;10974;51.034;3.744;2023-03-30T18:23:16;13.90;;;3.97;;
21624;SDS011;10974;51.034;3.744;2023-03-30T18:25:42;12.73;;;3.40;;
21624;SDS011;10974;51.034;3.744;2023-03-30T18:28:13;11.97;;;3.97;;
21624;SDS011;10974;51.034;3.744;2023-03-30T18:30:42;19.33;;;4.77;;
21624;SDS011;10974;51.034;3.744;2023-03-30T18:33:08;14.00;;;3.60;;
21624;SDS011;10974;51.034;3.744;2023-03-30T18:35:35;16.83;;;4.20;;
21624;SDS011;10974;51.034;3.744;2023-03-30T18:38:01;11.23;;;3.70;;
21624;SDS011;10974;51.034;3.744;2023-03-30T18:40:29;13.83;;;3.40;;
21624;SDS011;10974;51.034;3.744;2023-03-30T18:42:56;18.63;;;3.63;;
21624;SDS011;10974;51.034;3.744;2023-03-30T18:45:23;11.60;;;3.70;;
21624;SDS011;10974;51.034;3.744;2023-03-30T18:47:51;9.90;;;3.00;;
21624;SDS011;10974;51.034;3.744;2023-03-30T18:50:18;11.97;;;2.87;;
21624;SDS011;10974;51.034;3.744;2023-03-30T18:52:45;10.90;;;3.00;;
21624;SDS011;10974;51.034;3.744;2023-03-30T18:55:11;9.33;;;2.97;;
21624;SDS011;10974;51.034;3.744;2023-03-30T18:57:37;10.27;;;3.40;;
21624;SDS011;10974;51.034;3.744;2023-03-30T19:02:56;13.43;;;3.37;;
21624;SDS011;10974;51.034;3.744;2023-03-30T19:05:23;11.53;;;3.40;;
21624;SDS011;10974;51.034;3.744;2023-03-30T19:07:50;14.43;;;3.30;;
21624;SDS011;10974;51.034;3.744;2023-03-30T19:10:17;10.67;;;3.00;;
21624;SDS011;10974;51.034;3.744;2023-03-30T19:12:44;12.03;;;3.43;;
21624;SDS011;10974;51.034;3.744;2023-03-30T19:15:17;9.33;;;2.70;;
21624;SDS011;10974;51.034;3.744;2023-03-30T19:17:43;17.03;;;3.00;;
21624;SDS011;10974;51.034;3.744;2023-03-30T19:20:10;11.63;;;3.80;;
21624;SDS011;10974;51.034;3.744;2023-03-30T19:22:36;13.03;;;3.40;;
21624;SDS011;10974;51.034;3.744;2023-03-30T19:25:03;13.00;;;3.67;;
21624;SDS011;10974;51.034;3.744;2023-03-30T19:27:29;10.53;;;2.97;;
21624;SDS011;10974;51.034;3.744;2023-03-30T19:29:59;15.70;;;3.77;;
21624;SDS011;10974;51.034;3.744;2023-03-30T19:32:25;11.60;;;3.63;;
21624;SDS011;10974;51.034;3.744;2023-03-30T19:34:51;17.63;;;3.70;;
21624;SDS011;10974;51.034;3.744;2023-03-30T19:37:20;11.77;;;3.17;;
21624;SDS011;10974;51.034;3.744;2023-03-30T19:39:46;12.77;;;3.80;;
21624;SDS011;10974;51.034;3.744;2023-03-30T19:42:12;11.37;;;3.20;;
21624;SDS011;10974;51.034;3.744;2023-03-30T19:44:38;8.30;;;3.23;;
21624;SDS011;10974;51.034;3.744;2023-03-30T19:47:04;14.83;;;3.10;;
21624;SDS011;10974;51.034;3.744;2023-03-30T19:49:31;10.57;;;3.30;;
21624;SDS011;10974;51.034;3.744;2023-03-30T19:51:57;9.10;;;2.73;;
21624;SDS011;10974;51.034;3.744;2023-03-30T19:54:23;7.40;;;2.73;;
21624;SDS011;10974;51.034;3.744;2023-03-30T19:56:49;8.13;;;2.90;;
21624;SDS011;10974;51.034;3.744;2023-03-30T19:59:15;7.37;;;2.63;;
21624;SDS011;10974;51.034;3.744;2023-03-30T20:01:41;8.90;;;2.63;;
21624;SDS011;10974;51.034;3.744;2023-03-30T20:04:07;10.90;;;2.63;;
21624;SDS011;10974;51.034;3.744;2023-03-30T20:06:34;9.53;;;2.80;;
21624;SDS011;10974;51.034;3.744;2023-03-30T20:09:00;8.30;;;2.50;;
21624;SDS011;10974;51.034;3.744;2023-03-30T20:11:26;6.93;;;2.90;;
21624;SDS011;10974;51.034;3.744;2023-03-30T20:13:53;13.57;;;3.07;;
21624;SDS011;10974;51.034;3.744;2023-03-30T20:16:19;7.83;;;2.53;;
21624;SDS011;10974;51.034;3.744;2023-03-30T20:18:49;13.10;;;2.83;;
21624;SDS011;10974;51.034;3.744;2023-03-30T20:21:16;4.93;;;2.20;;
21624;SDS011;10974;51.034;3.744;2023-03-30T20:23:43;9.03;;;2.67;;
21624;SDS011;10974;51.034;3.744;2023-03-30T20:26:09;11.67;;;3.77;;
21624;SDS011;10974;51.034;3.744;2023-03-30T20:28:35;9.83;;;2.20;;
21624;SDS011;10974;51.034;3.744;2023-03-30T20:31:01;6.20;;;2.50;;
21624;SDS011;10974;51.034;3.744;2023-03-30T20:33:27;9.67;;;3.00;;
21624;SDS011;10974;51.034;3.744;2023-03-30T20:35:54;12.00;;;3.00;;
21624;SDS011;10974;51.034;3.744;2023-03-30T20:38:20;11.00;;;2.93;;
21624;SDS011;10974;51.034;3.744;2023-03-30T20:40:56;6.97;;;2.73;;
21624;SDS011;10974;51.034;3.744;2023-03-30T20:43:23;9.50;;;2.57;;
21624;SDS011;10974;51.034;3.744;2023-03-30T20:45:53;6.50;;;2.67;;
21624;SDS011;10974;51.034;3.744;2023-03-30T20:48:26;11.33;;;2.97;;
21624;SDS011;10974;51.034;3.744;2023-03-30T20:50:57;11.33;;;3.13;;
21624;SDS011;10974;51.034;3.744;2023-03-30T20:53:23;9.87;;;3.10;;
21624;SDS011;10974;51.034;3.744;2023-03-30T20:55:49;10.13;;;2.80;;
21624;SDS011;10974;51.034;3.744;2023-03-30T20:58:16;10.60;;;2.97;;
21624;SDS011;10974;51.034;3.744;2023-03-30T21:00:42;11.80;;;3.37;;
21624;SDS011;10974;51.034;3.744;2023-03-30T21:03:08;8.37;;;3.13;;
21624;SDS011;10974;51.034;3.744;2023-03-30T21:05:34;9.57;;;2.83;;
21624;SDS011;10974;51.034;3.744;2023-03-30T21:08:01;7.93;;;2.50;;
21624;SDS011;10974;51.034;3.744;2023-03-30T21:10:27;12.23;;;3.47;;
21624;SDS011;10974;51.034;3.744;2023-03-30T21:12:53;13.30;;;3.30;;
21624;SDS011;10974;51.034;3.744;2023-03-30T21:15:19;7.17;;;2.70;;
21624;SDS011;10974;51.034;3.744;2023-03-30T21:17:45;9.90;;;3.37;;